sensor_id;sensor_type;location;lat;lon;timestamp;P1;durP1;ratioP1;P2;durP2;ratioP2
56541;SDS011;42438;53.174;6.730;2023-09-12T00:01:53;35.97;;;22.52;;
56541;SDS011;42438;53.174;6.730;2023-09-12T00:04:24;36.47;;;22.35;;
56541;SDS011;42438;53.174;6.730;2023-09-12T00:06:55;37.53;;;22.15;;
56541;SDS011;42438;53.174;6.730;2023-09-12T00:09:26;38.90;;;24.55;;
56541;SDS011;42438;53.174;6.730;2023-09-12T00:11:57;38.60;;;23.05;;
56541;SDS011;42438;53.174;6.730;2023-09-12T00:14:29;38.20;;;23.42;;
56541;SDS011;42438;53.174;6.730;2023-09-12T00:16:59;34.05;;;21.85;;
56541;SDS011;42438;53.174;6.730;2023-09-12T00:19:30;35.53;;;22.95;;
56541;SDS011;42438;53.174;6.730;2023-09-12T00:22:01;37.75;;;23.20;;
56541;SDS011;42438;53.174;6.730;2023-09-12T00:24:31;36.50;;;23.70;;
56541;SDS011;42438;53.174;6.730;2023-09-12T00:27:02;39.00;;;23.95;;
56541;SDS011;42438;53.174;6.730;2023-09-12T00:29:34;37.50;;;23.80;;
56541;SDS011;42438;53.174;6.730;2023-09-12T00:32:05;38.92;;;21.98;;
56541;SDS011;42438;53.174;6.730;2023-09-12T00:34:36;38.15;;;22.48;;
56541;SDS011;42438;53.174;6.730;2023-09-12T00:37:06;36.20;;;23.08;;
56541;SDS011;42438;53.174;6.730;2023-09-12T00:39:37;38.40;;;22.83;;
56541;SDS011;42438;53.174;6.730;2023-09-12T00:42:08;41.33;;;23.70;;
56541;SDS011;42438;53.174;6.730;2023-09-12T00:44:38;36.25;;;22.95;;
56541;SDS011;42438;53.174;6.730;2023-09-12T00:47:09;39.35;;;23.35;;
56541;SDS011;42438;53.174;6.730;2023-09-12T00:49:41;38.25;;;22.88;;
56541;SDS011;42438;53.174;6.730;2023-09-12T00:52:12;33.55;;;20.83;;
56541;SDS011;42438;53.174;6.730;2023-09-12T00:54:44;33.53;;;20.25;;
56541;SDS011;42438;53.174;6.730;2023-09-12T00:57:15;35.15;;;20.55;;
56541;SDS011;42438;53.174;6.730;2023-09-12T00:59:45;31.90;;;20.45;;
56541;SDS011;42438;53.174;6.730;2023-09-12T01:02:20;33.15;;;18.98;;
56541;SDS011;42438;53.174;6.730;2023-09-12T01:04:51;35.85;;;21.85;;
56541;SDS011;42438;53.174;6.730;2023-09-12T01:07:22;33.75;;;19.33;;
56541;SDS011;42438;53.174;6.730;2023-09-12T01:09:52;37.20;;;21.83;;
56541;SDS011;42438;53.174;6.730;2023-09-12T01:12:23;33.35;;;21.10;;
56541;SDS011;42438;53.174;6.730;2023-09-12T01:14:54;31.20;;;19.52;;
56541;SDS011;42438;53.174;6.730;2023-09-12T01:17:25;32.83;;;20.17;;
56541;SDS011;42438;53.174;6.730;2023-09-12T01:19:57;36.15;;;20.85;;
56541;SDS011;42438;53.174;6.730;2023-09-12T01:25:59;35.63;;;22.02;;
56541;SDS011;42438;53.174;6.730;2023-09-12T01:28:32;43.75;;;23.73;;
56541;SDS011;42438;53.174;6.730;2023-09-12T01:31:04;39.22;;;22.75;;
56541;SDS011;42438;53.174;6.730;2023-09-12T01:33:35;37.10;;;22.83;;
56541;SDS011;42438;53.174;6.730;2023-09-12T01:36:06;37.55;;;21.30;;
56541;SDS011;42438;53.174;6.730;2023-09-12T01:38:38;36.47;;;22.05;;
56541;SDS011;42438;53.174;6.730;2023-09-12T01:41:09;41.08;;;24.20;;
56541;SDS011;42438;53.174;6.730;2023-09-12T01:43:39;43.45;;;24.67;;
56541;SDS011;42438;53.174;6.730;2023-09-12T01:46:12;42.45;;;23.33;;
56541;SDS011;42438;53.174;6.730;2023-09-12T01:48:45;39.95;;;23.67;;
56541;SDS011;42438;53.174;6.730;2023-09-12T01:51:21;38.63;;;23.38;;
56541;SDS011;42438;53.174;6.730;2023-09-12T01:56:25;37.25;;;21.73;;
56541;SDS011;42438;53.174;6.730;2023-09-12T01:58:56;41.78;;;22.88;;
56541;SDS011;42438;53.174;6.730;2023-09-12T02:01:27;42.70;;;25.23;;
56541;SDS011;42438;53.174;6.730;2023-09-12T02:03:58;39.50;;;23.75;;
56541;SDS011;42438;53.174;6.730;2023-09-12T02:06:29;39.63;;;24.98;;
56541;SDS011;42438;53.174;6.730;2023-09-12T02:08:59;41.83;;;24.42;;
56541;SDS011;42438;53.174;6.730;2023-09-12T02:11:30;42.17;;;24.08;;
56541;SDS011;42438;53.174;6.730;2023-09-12T02:14:00;43.97;;;25.92;;
56541;SDS011;42438;53.174;6.730;2023-09-12T02:16:32;42.65;;;24.20;;
56541;SDS011;42438;53.174;6.730;2023-09-12T02:19:02;41.63;;;24.73;;
56541;SDS011;42438;53.174;6.730;2023-09-12T02:21:33;42.00;;;23.73;;
56541;SDS011;42438;53.174;6.730;2023-09-12T02:24:04;40.70;;;24.52;;
56541;SDS011;42438;53.174;6.730;2023-09-12T02:26:35;39.38;;;22.95;;
56541;SDS011;42438;53.174;6.730;2023-09-12T02:29:06;38.58;;;23.80;;
56541;SDS011;42438;53.174;6.730;2023-09-12T02:31:37;38.20;;;22.63;;
56541;SDS011;42438;53.174;6.730;2023-09-12T02:34:08;40.90;;;23.02;;
56541;SDS011;42438;53.174;6.730;2023-09-12T02:36:38;37.92;;;21.90;;
56541;SDS011;42438;53.174;6.730;2023-09-12T02:39:09;41.30;;;23.80;;
56541;SDS011;42438;53.174;6.730;2023-09-12T02:41:40;40.90;;;23.55;;
56541;SDS011;42438;53.174;6.730;2023-09-12T02:44:10;42.10;;;23.67;;
56541;SDS011;42438;53.174;6.730;2023-09-12T02:46:41;40.60;;;22.90;;
56541;SDS011;42438;53.174;6.730;2023-09-12T02:49:12;40.25;;;22.90;;
56541;SDS011;42438;53.174;6.730;2023-09-12T02:51:42;40.95;;;23.67;;
56541;SDS011;42438;53.174;6.730;2023-09-12T02:54:13;38.47;;;21.60;;
56541;SDS011;42438;53.174;6.730;2023-09-12T02:56:44;41.58;;;23.10;;
56541;SDS011;42438;53.174;6.730;2023-09-12T02:59:15;42.97;;;23.60;;
56541;SDS011;42438;53.174;6.730;2023-09-12T03:01:45;41.30;;;23.42;;
56541;SDS011;42438;53.174;6.730;2023-09-12T03:04:16;41.22;;;24.73;;
56541;SDS011;42438;53.174;6.730;2023-09-12T03:06:47;40.20;;;23.48;;
56541;SDS011;42438;53.174;6.730;2023-09-12T03:09:17;42.05;;;23.30;;
56541;SDS011;42438;53.174;6.730;2023-09-12T03:11:49;38.83;;;22.00;;
56541;SDS011;42438;53.174;6.730;2023-09-12T03:14:20;43.88;;;24.40;;
56541;SDS011;42438;53.174;6.730;2023-09-12T03:16:51;37.85;;;22.48;;
56541;SDS011;42438;53.174;6.730;2023-09-12T03:19:21;40.30;;;22.38;;
56541;SDS011;42438;53.174;6.730;2023-09-12T03:21:52;38.90;;;23.27;;
56541;SDS011;42438;53.174;6.730;2023-09-12T03:24:23;46.60;;;24.45;;
56541;SDS011;42438;53.174;6.730;2023-09-12T03:26:55;40.78;;;23.08;;
56541;SDS011;42438;53.174;6.730;2023-09-12T03:29:25;43.47;;;23.98;;
56541;SDS011;42438;53.174;6.730;2023-09-12T03:31:56;46.13;;;24.77;;
56541;SDS011;42438;53.174;6.730;2023-09-12T03:34:27;39.47;;;23.60;;
56541;SDS011;42438;53.174;6.730;2023-09-12T03:36:57;41.80;;;22.63;;
56541;SDS011;42438;53.174;6.730;2023-09-12T03:39:28;38.83;;;22.25;;
56541;SDS011;42438;53.174;6.730;2023-09-12T03:41:59;42.33;;;23.35;;
56541;SDS011;42438;53.174;6.730;2023-09-12T03:44:29;36.85;;;21.77;;
56541;SDS011;42438;53.174;6.730;2023-09-12T03:47:00;40.47;;;22.48;;
56541;SDS011;42438;53.174;6.730;2023-09-12T03:49:31;42.78;;;23.70;;
56541;SDS011;42438;53.174;6.730;2023-09-12T03:52:01;41.13;;;23.92;;
56541;SDS011;42438;53.174;6.730;2023-09-12T03:54:32;40.30;;;22.00;;
56541;SDS011;42438;53.174;6.730;2023-09-12T03:57:03;38.25;;;22.90;;
56541;SDS011;42438;53.174;6.730;2023-09-12T03:59:34;40.38;;;23.17;;
56541;SDS011;42438;53.174;6.730;2023-09-12T04:02:04;40.90;;;22.48;;
56541;SDS011;42438;53.174;6.730;2023-09-12T04:04:35;39.85;;;22.40;;
56541;SDS011;42438;53.174;6.730;2023-09-12T04:07:06;37.88;;;20.83;;
56541;SDS011;42438;53.174;6.730;2023-09-12T04:09:36;40.63;;;24.25;;
56541;SDS011;42438;53.174;6.730;2023-09-12T04:12:07;41.17;;;22.83;;
56541;SDS011;42438;53.174;6.730;2023-09-12T04:14:39;41.05;;;22.35;;
56541;SDS011;42438;53.174;6.730;2023-09-12T04:17:09;40.08;;;22.70;;
56541;SDS011;42438;53.174;6.730;2023-09-12T04:19:40;39.15;;;22.73;;
56541;SDS011;42438;53.174;6.730;2023-09-12T04:22:11;41.72;;;22.48;;
56541;SDS011;42438;53.174;6.730;2023-09-12T04:24:41;39.08;;;22.85;;
56541;SDS011;42438;53.174;6.730;2023-09-12T04:27:12;41.53;;;21.25;;
56541;SDS011;42438;53.174;6.730;2023-09-12T04:29:43;36.97;;;21.38;;
56541;SDS011;42438;53.174;6.730;2023-09-12T04:32:14;40.88;;;23.27;;
56541;SDS011;42438;53.174;6.730;2023-09-12T04:34:46;36.53;;;22.07;;
56541;SDS011;42438;53.174;6.730;2023-09-12T04:37:17;40.35;;;22.05;;
56541;SDS011;42438;53.174;6.730;2023-09-12T04:39:48;38.17;;;21.60;;
56541;SDS011;42438;53.174;6.730;2023-09-12T04:42:18;39.83;;;23.25;;
56541;SDS011;42438;53.174;6.730;2023-09-12T04:44:49;38.92;;;21.95;;
56541;SDS011;42438;53.174;6.730;2023-09-12T04:47:20;43.10;;;23.55;;
56541;SDS011;42438;53.174;6.730;2023-09-12T04:49:51;38.85;;;21.85;;
56541;SDS011;42438;53.174;6.730;2023-09-12T04:52:23;44.63;;;22.95;;
56541;SDS011;42438;53.174;6.730;2023-09-12T04:54:54;42.83;;;23.92;;
56541;SDS011;42438;53.174;6.730;2023-09-12T04:57:24;46.05;;;24.63;;
56541;SDS011;42438;53.174;6.730;2023-09-12T04:59:55;41.10;;;22.65;;
56541;SDS011;42438;53.174;6.730;2023-09-12T05:02:25;45.33;;;24.52;;
56541;SDS011;42438;53.174;6.730;2023-09-12T05:04:56;40.97;;;22.55;;
56541;SDS011;42438;53.174;6.730;2023-09-12T05:07:27;45.58;;;24.42;;
56541;SDS011;42438;53.174;6.730;2023-09-12T05:09:58;47.95;;;25.88;;
56541;SDS011;42438;53.174;6.730;2023-09-12T05:12:29;43.15;;;23.02;;
56541;SDS011;42438;53.174;6.730;2023-09-12T05:14:59;47.10;;;26.00;;
56541;SDS011;42438;53.174;6.730;2023-09-12T05:17:30;38.03;;;21.27;;
56541;SDS011;42438;53.174;6.730;2023-09-12T05:20:02;42.00;;;22.48;;
56541;SDS011;42438;53.174;6.730;2023-09-12T05:22:34;42.08;;;23.42;;
56541;SDS011;42438;53.174;6.730;2023-09-12T05:25:05;39.92;;;23.48;;
56541;SDS011;42438;53.174;6.730;2023-09-12T05:27:36;43.10;;;23.83;;
56541;SDS011;42438;53.174;6.730;2023-09-12T05:30:07;44.47;;;23.23;;
56541;SDS011;42438;53.174;6.730;2023-09-12T05:32:37;35.33;;;20.73;;
56541;SDS011;42438;53.174;6.730;2023-09-12T05:35:08;34.35;;;20.80;;
56541;SDS011;42438;53.174;6.730;2023-09-12T05:37:39;31.77;;;19.70;;
56541;SDS011;42438;53.174;6.730;2023-09-12T05:40:10;36.97;;;21.98;;
56541;SDS011;42438;53.174;6.730;2023-09-12T05:42:40;34.60;;;21.38;;
56541;SDS011;42438;53.174;6.730;2023-09-12T05:45:11;38.45;;;21.90;;
56541;SDS011;42438;53.174;6.730;2023-09-12T05:47:42;36.22;;;21.33;;
56541;SDS011;42438;53.174;6.730;2023-09-12T05:50:12;37.25;;;21.13;;
56541;SDS011;42438;53.174;6.730;2023-09-12T05:52:43;37.33;;;21.02;;
56541;SDS011;42438;53.174;6.730;2023-09-12T05:55:14;36.60;;;20.52;;
56541;SDS011;42438;53.174;6.730;2023-09-12T05:57:44;37.30;;;20.90;;
56541;SDS011;42438;53.174;6.730;2023-09-12T06:00:15;43.92;;;23.02;;
56541;SDS011;42438;53.174;6.730;2023-09-12T06:02:46;45.30;;;23.13;;
56541;SDS011;42438;53.174;6.730;2023-09-12T06:05:17;47.42;;;23.67;;
56541;SDS011;42438;53.174;6.730;2023-09-12T06:07:48;43.90;;;22.35;;
56541;SDS011;42438;53.174;6.730;2023-09-12T06:10:19;47.83;;;24.45;;
56541;SDS011;42438;53.174;6.730;2023-09-12T06:12:50;49.92;;;25.60;;
56541;SDS011;42438;53.174;6.730;2023-09-12T06:15:20;54.60;;;25.48;;
56541;SDS011;42438;53.174;6.730;2023-09-12T06:17:51;48.72;;;24.92;;
56541;SDS011;42438;53.174;6.730;2023-09-12T06:20:22;61.80;;;26.35;;
56541;SDS011;42438;53.174;6.730;2023-09-12T06:22:53;62.08;;;26.75;;
56541;SDS011;42438;53.174;6.730;2023-09-12T06:25:23;59.22;;;27.25;;
56541;SDS011;42438;53.174;6.730;2023-09-12T06:27:54;55.03;;;25.48;;
56541;SDS011;42438;53.174;6.730;2023-09-12T06:30:25;57.42;;;27.27;;
56541;SDS011;42438;53.174;6.730;2023-09-12T06:32:56;72.60;;;28.02;;
56541;SDS011;42438;53.174;6.730;2023-09-12T06:35:26;68.80;;;29.58;;
56541;SDS011;42438;53.174;6.730;2023-09-12T06:37:57;65.13;;;28.08;;
56541;SDS011;42438;53.174;6.730;2023-09-12T06:40:28;55.90;;;26.08;;
56541;SDS011;42438;53.174;6.730;2023-09-12T06:42:58;67.65;;;29.08;;
56541;SDS011;42438;53.174;6.730;2023-09-12T06:45:29;68.28;;;29.10;;
56541;SDS011;42438;53.174;6.730;2023-09-12T06:48:03;75.80;;;29.90;;
56541;SDS011;42438;53.174;6.730;2023-09-12T06:50:34;69.30;;;28.77;;
56541;SDS011;42438;53.174;6.730;2023-09-12T06:53:07;65.45;;;28.77;;
56541;SDS011;42438;53.174;6.730;2023-09-12T06:55:40;66.88;;;28.55;;
56541;SDS011;42438;53.174;6.730;2023-09-12T06:58:10;64.85;;;28.02;;
56541;SDS011;42438;53.174;6.730;2023-09-12T07:00:42;68.93;;;29.17;;
56541;SDS011;42438;53.174;6.730;2023-09-12T07:03:12;61.05;;;27.60;;
56541;SDS011;42438;53.174;6.730;2023-09-12T07:05:43;65.63;;;27.42;;
56541;SDS011;42438;53.174;6.730;2023-09-12T07:08:14;65.68;;;27.50;;
56541;SDS011;42438;53.174;6.730;2023-09-12T07:10:45;67.22;;;28.23;;
56541;SDS011;42438;53.174;6.730;2023-09-12T07:13:16;65.85;;;27.50;;
56541;SDS011;42438;53.174;6.730;2023-09-12T07:15:46;68.25;;;30.58;;
56541;SDS011;42438;53.174;6.730;2023-09-12T07:18:17;68.28;;;28.50;;
56541;SDS011;42438;53.174;6.730;2023-09-12T07:21:04;64.38;;;30.08;;
56541;SDS011;42438;53.174;6.730;2023-09-12T07:23:35;59.55;;;28.73;;
56541;SDS011;42438;53.174;6.730;2023-09-12T07:26:11;59.03;;;27.83;;
56541;SDS011;42438;53.174;6.730;2023-09-12T07:28:43;69.25;;;29.35;;
56541;SDS011;42438;53.174;6.730;2023-09-12T07:31:14;64.03;;;29.40;;
56541;SDS011;42438;53.174;6.730;2023-09-12T07:33:45;59.17;;;27.95;;
56541;SDS011;42438;53.174;6.730;2023-09-12T07:36:16;70.40;;;30.05;;
56541;SDS011;42438;53.174;6.730;2023-09-12T07:38:46;53.67;;;26.23;;
56541;SDS011;42438;53.174;6.730;2023-09-12T07:41:18;53.70;;;26.08;;
56541;SDS011;42438;53.174;6.730;2023-09-12T07:43:49;60.63;;;29.77;;
56541;SDS011;42438;53.174;6.730;2023-09-12T07:46:19;57.00;;;29.38;;
56541;SDS011;42438;53.174;6.730;2023-09-12T07:48:50;58.20;;;27.40;;
56541;SDS011;42438;53.174;6.730;2023-09-12T07:51:22;53.72;;;28.20;;
56541;SDS011;42438;53.174;6.730;2023-09-12T07:53:53;56.47;;;28.25;;
56541;SDS011;42438;53.174;6.730;2023-09-12T07:56:24;51.15;;;28.05;;
56541;SDS011;42438;53.174;6.730;2023-09-12T07:58:56;51.45;;;25.55;;
56541;SDS011;42438;53.174;6.730;2023-09-12T08:01:27;51.33;;;26.42;;
56541;SDS011;42438;53.174;6.730;2023-09-12T08:03:58;52.65;;;27.80;;
56541;SDS011;42438;53.174;6.730;2023-09-12T08:06:28;51.97;;;26.75;;
56541;SDS011;42438;53.174;6.730;2023-09-12T08:09:00;51.88;;;25.88;;
56541;SDS011;42438;53.174;6.730;2023-09-12T08:11:31;48.97;;;26.17;;
56541;SDS011;42438;53.174;6.730;2023-09-12T08:14:02;46.47;;;23.88;;
56541;SDS011;42438;53.174;6.730;2023-09-12T08:16:33;51.95;;;26.73;;
56541;SDS011;42438;53.174;6.730;2023-09-12T08:19:04;48.47;;;24.05;;
56541;SDS011;42438;53.174;6.730;2023-09-12T08:21:35;52.05;;;26.80;;
56541;SDS011;42438;53.174;6.730;2023-09-12T08:24:05;47.10;;;24.17;;
56541;SDS011;42438;53.174;6.730;2023-09-12T08:26:36;48.42;;;25.45;;
56541;SDS011;42438;53.174;6.730;2023-09-12T08:29:07;48.08;;;25.58;;
56541;SDS011;42438;53.174;6.730;2023-09-12T08:31:37;51.30;;;25.73;;
56541;SDS011;42438;53.174;6.730;2023-09-12T08:34:08;46.20;;;24.70;;
56541;SDS011;42438;53.174;6.730;2023-09-12T08:36:39;47.15;;;23.48;;
56541;SDS011;42438;53.174;6.730;2023-09-12T08:39:11;47.03;;;25.15;;
56541;SDS011;42438;53.174;6.730;2023-09-12T08:41:43;46.13;;;25.70;;
56541;SDS011;42438;53.174;6.730;2023-09-12T08:44:16;47.75;;;25.50;;
56541;SDS011;42438;53.174;6.730;2023-09-12T08:46:48;49.75;;;25.27;;
56541;SDS011;42438;53.174;6.730;2023-09-12T08:49:19;47.53;;;23.73;;
56541;SDS011;42438;53.174;6.730;2023-09-12T08:51:49;50.90;;;26.73;;
56541;SDS011;42438;53.174;6.730;2023-09-12T08:54:20;51.92;;;28.00;;
56541;SDS011;42438;53.174;6.730;2023-09-12T08:56:51;46.75;;;25.70;;
56541;SDS011;42438;53.174;6.730;2023-09-12T08:59:22;48.83;;;26.58;;
56541;SDS011;42438;53.174;6.730;2023-09-12T09:01:53;44.78;;;23.75;;
56541;SDS011;42438;53.174;6.730;2023-09-12T09:04:30;44.47;;;23.42;;
56541;SDS011;42438;53.174;6.730;2023-09-12T09:07:03;46.70;;;24.27;;
56541;SDS011;42438;53.174;6.730;2023-09-12T09:09:34;38.72;;;21.60;;
56541;SDS011;42438;53.174;6.730;2023-09-12T09:12:08;44.72;;;22.25;;
56541;SDS011;42438;53.174;6.730;2023-09-12T09:14:40;44.05;;;23.77;;
56541;SDS011;42438;53.174;6.730;2023-09-12T09:17:11;47.70;;;23.63;;
56541;SDS011;42438;53.174;6.730;2023-09-12T09:19:44;43.22;;;23.27;;
56541;SDS011;42438;53.174;6.730;2023-09-12T09:22:15;50.08;;;24.55;;
56541;SDS011;42438;53.174;6.730;2023-09-12T09:24:46;43.28;;;23.02;;
56541;SDS011;42438;53.174;6.730;2023-09-12T09:27:32;45.20;;;24.38;;
56541;SDS011;42438;53.174;6.730;2023-09-12T09:30:04;45.75;;;25.77;;
56541;SDS011;42438;53.174;6.730;2023-09-12T09:32:36;42.03;;;23.75;;
56541;SDS011;42438;53.174;6.730;2023-09-12T09:35:07;48.22;;;25.45;;
56541;SDS011;42438;53.174;6.730;2023-09-12T09:37:39;42.60;;;25.35;;
56541;SDS011;42438;53.174;6.730;2023-09-12T09:40:10;43.45;;;23.75;;
56541;SDS011;42438;53.174;6.730;2023-09-12T09:42:41;45.60;;;25.27;;
56541;SDS011;42438;53.174;6.730;2023-09-12T09:45:12;42.25;;;23.60;;
56541;SDS011;42438;53.174;6.730;2023-09-12T09:47:43;43.63;;;26.42;;
56541;SDS011;42438;53.174;6.730;2023-09-12T09:50:14;42.63;;;23.83;;
56541;SDS011;42438;53.174;6.730;2023-09-12T09:52:45;40.15;;;23.70;;
56541;SDS011;42438;53.174;6.730;2023-09-12T09:55:15;43.72;;;23.48;;
56541;SDS011;42438;53.174;6.730;2023-09-12T09:57:49;36.30;;;21.08;;
56541;SDS011;42438;53.174;6.730;2023-09-12T10:00:23;45.83;;;23.88;;
56541;SDS011;42438;53.174;6.730;2023-09-12T10:02:55;38.08;;;21.23;;
56541;SDS011;42438;53.174;6.730;2023-09-12T10:05:26;47.25;;;25.05;;
56541;SDS011;42438;53.174;6.730;2023-09-12T10:07:59;43.33;;;23.33;;
56541;SDS011;42438;53.174;6.730;2023-09-12T10:13:04;44.87;;;24.20;;
56541;SDS011;42438;53.174;6.730;2023-09-12T10:15:37;44.90;;;23.90;;
56541;SDS011;42438;53.174;6.730;2023-09-12T10:18:10;46.00;;;25.17;;
56541;SDS011;42438;53.174;6.730;2023-09-12T10:20:50;42.70;;;23.27;;
56541;SDS011;42438;53.174;6.730;2023-09-12T10:23:30;38.03;;;22.50;;
56541;SDS011;42438;53.174;6.730;2023-09-12T10:26:12;43.80;;;23.75;;
56541;SDS011;42438;53.174;6.730;2023-09-12T10:28:43;41.50;;;23.17;;
56541;SDS011;42438;53.174;6.730;2023-09-12T10:31:15;44.50;;;23.73;;
56541;SDS011;42438;53.174;6.730;2023-09-12T10:33:47;39.95;;;22.42;;
56541;SDS011;42438;53.174;6.730;2023-09-12T10:36:20;39.28;;;21.70;;
56541;SDS011;42438;53.174;6.730;2023-09-12T10:38:55;42.35;;;21.55;;
56541;SDS011;42438;53.174;6.730;2023-09-12T10:41:28;37.13;;;21.65;;
56541;SDS011;42438;53.174;6.730;2023-09-12T10:44:00;42.55;;;23.08;;
56541;SDS011;42438;53.174;6.730;2023-09-12T10:46:32;35.58;;;20.50;;
56541;SDS011;42438;53.174;6.730;2023-09-12T10:49:06;38.08;;;22.25;;
56541;SDS011;42438;53.174;6.730;2023-09-12T10:51:39;40.75;;;20.75;;
56541;SDS011;42438;53.174;6.730;2023-09-12T10:54:15;40.20;;;20.40;;
56541;SDS011;42438;53.174;6.730;2023-09-12T10:57:03;36.75;;;19.92;;
56541;SDS011;42438;53.174;6.730;2023-09-12T10:59:35;34.55;;;19.50;;
56541;SDS011;42438;53.174;6.730;2023-09-12T11:02:26;34.22;;;19.90;;
56541;SDS011;42438;53.174;6.730;2023-09-12T11:05:05;30.52;;;17.98;;
56541;SDS011;42438;53.174;6.730;2023-09-12T11:12:51;37.53;;;19.70;;
56541;SDS011;42438;53.174;6.730;2023-09-12T11:15:23;32.60;;;19.55;;
56541;SDS011;42438;53.174;6.730;2023-09-12T11:18:02;34.53;;;19.75;;
56541;SDS011;42438;53.174;6.730;2023-09-12T11:23:43;34.95;;;19.45;;
56541;SDS011;42438;53.174;6.730;2023-09-12T11:26:24;30.65;;;18.17;;
56541;SDS011;42438;53.174;6.730;2023-09-12T11:28:55;31.83;;;19.25;;
56541;SDS011;42438;53.174;6.730;2023-09-12T11:31:26;29.08;;;17.80;;
56541;SDS011;42438;53.174;6.730;2023-09-12T11:34:00;33.05;;;18.13;;
56541;SDS011;42438;53.174;6.730;2023-09-12T11:36:37;26.67;;;18.52;;
56541;SDS011;42438;53.174;6.730;2023-09-12T11:39:22;28.13;;;18.02;;
56541;SDS011;42438;53.174;6.730;2023-09-12T11:41:55;36.17;;;17.60;;
56541;SDS011;42438;53.174;6.730;2023-09-12T11:44:27;30.27;;;18.27;;
56541;SDS011;42438;53.174;6.730;2023-09-12T11:47:01;27.17;;;16.17;;
56541;SDS011;42438;53.174;6.730;2023-09-12T11:49:39;29.83;;;17.33;;
56541;SDS011;42438;53.174;6.730;2023-09-12T11:52:12;30.40;;;17.67;;
56541;SDS011;42438;53.174;6.730;2023-09-12T11:54:44;27.98;;;17.73;;
56541;SDS011;42438;53.174;6.730;2023-09-12T11:57:15;31.65;;;18.90;;
56541;SDS011;42438;53.174;6.730;2023-09-12T11:59:46;29.98;;;18.45;;
56541;SDS011;42438;53.174;6.730;2023-09-12T12:02:20;32.15;;;19.00;;
56541;SDS011;42438;53.174;6.730;2023-09-12T12:04:51;26.40;;;17.42;;
56541;SDS011;42438;53.174;6.730;2023-09-12T12:07:24;28.65;;;17.92;;
56541;SDS011;42438;53.174;6.730;2023-09-12T12:09:55;31.08;;;16.50;;
56541;SDS011;42438;53.174;6.730;2023-09-12T12:12:25;25.30;;;16.23;;
56541;SDS011;42438;53.174;6.730;2023-09-12T12:14:56;29.30;;;17.45;;
56541;SDS011;42438;53.174;6.730;2023-09-12T12:17:27;28.15;;;16.80;;
56541;SDS011;42438;53.174;6.730;2023-09-12T12:19:57;25.67;;;15.07;;
56541;SDS011;42438;53.174;6.730;2023-09-12T12:22:28;28.40;;;18.23;;
56541;SDS011;42438;53.174;6.730;2023-09-12T12:25:05;26.92;;;16.48;;
56541;SDS011;42438;53.174;6.730;2023-09-12T12:27:37;21.50;;;15.15;;
56541;SDS011;42438;53.174;6.730;2023-09-12T12:30:10;23.73;;;14.77;;
56541;SDS011;42438;53.174;6.730;2023-09-12T12:32:43;26.02;;;15.30;;
56541;SDS011;42438;53.174;6.730;2023-09-12T12:35:20;21.10;;;12.85;;
56541;SDS011;42438;53.174;6.730;2023-09-12T12:37:53;22.07;;;13.47;;
56541;SDS011;42438;53.174;6.730;2023-09-12T12:40:26;19.88;;;12.90;;
56541;SDS011;42438;53.174;6.730;2023-09-12T12:42:56;20.23;;;13.93;;
56541;SDS011;42438;53.174;6.730;2023-09-12T12:45:27;16.27;;;10.85;;
56541;SDS011;42438;53.174;6.730;2023-09-12T12:47:59;16.60;;;9.85;;
56541;SDS011;42438;53.174;6.730;2023-09-12T12:50:35;17.45;;;10.63;;
56541;SDS011;42438;53.174;6.730;2023-09-12T12:53:06;18.63;;;10.93;;
56541;SDS011;42438;53.174;6.730;2023-09-12T12:55:37;17.02;;;10.80;;
56541;SDS011;42438;53.174;6.730;2023-09-12T12:58:09;17.13;;;10.80;;
56541;SDS011;42438;53.174;6.730;2023-09-12T13:00:40;18.15;;;11.15;;
56541;SDS011;42438;53.174;6.730;2023-09-12T13:03:11;15.75;;;10.63;;
56541;SDS011;42438;53.174;6.730;2023-09-12T13:05:41;15.65;;;11.00;;
56541;SDS011;42438;53.174;6.730;2023-09-12T13:08:12;21.17;;;12.02;;
56541;SDS011;42438;53.174;6.730;2023-09-12T13:10:43;16.95;;;12.23;;
56541;SDS011;42438;53.174;6.730;2023-09-12T13:13:13;17.88;;;11.25;;
56541;SDS011;42438;53.174;6.730;2023-09-12T13:15:45;19.10;;;12.32;;
56541;SDS011;42438;53.174;6.730;2023-09-12T13:18:16;17.50;;;11.50;;
56541;SDS011;42438;53.174;6.730;2023-09-12T13:20:47;18.10;;;11.65;;
56541;SDS011;42438;53.174;6.730;2023-09-12T13:23:17;17.52;;;11.10;;
56541;SDS011;42438;53.174;6.730;2023-09-12T13:25:48;18.65;;;11.27;;
56541;SDS011;42438;53.174;6.730;2023-09-12T13:28:19;19.92;;;11.60;;
56541;SDS011;42438;53.174;6.730;2023-09-12T13:30:50;17.92;;;11.73;;
56541;SDS011;42438;53.174;6.730;2023-09-12T13:33:20;8.88;;;6.40;;
56541;SDS011;42438;53.174;6.730;2023-09-12T13:35:51;9.52;;;6.38;;
56541;SDS011;42438;53.174;6.730;2023-09-12T13:38:22;11.52;;;7.88;;
56541;SDS011;42438;53.174;6.730;2023-09-12T13:40:53;13.68;;;7.38;;
56541;SDS011;42438;53.174;6.730;2023-09-12T13:43:23;10.68;;;7.88;;
56541;SDS011;42438;53.174;6.730;2023-09-12T13:45:54;15.57;;;9.35;;
56541;SDS011;42438;53.174;6.730;2023-09-12T13:48:25;14.23;;;9.02;;
56541;SDS011;42438;53.174;6.730;2023-09-12T13:50:57;14.32;;;8.77;;
56541;SDS011;42438;53.174;6.730;2023-09-12T13:53:28;13.00;;;8.55;;
56541;SDS011;42438;53.174;6.730;2023-09-12T13:55:59;14.30;;;9.05;;
56541;SDS011;42438;53.174;6.730;2023-09-12T13:58:31;18.08;;;9.15;;
56541;SDS011;42438;53.174;6.730;2023-09-12T14:01:03;13.75;;;9.85;;
56541;SDS011;42438;53.174;6.730;2023-09-12T14:03:33;14.95;;;10.15;;
56541;SDS011;42438;53.174;6.730;2023-09-12T14:06:04;13.50;;;9.38;;
56541;SDS011;42438;53.174;6.730;2023-09-12T14:08:35;14.43;;;9.07;;
56541;SDS011;42438;53.174;6.730;2023-09-12T14:11:06;13.30;;;8.60;;
56541;SDS011;42438;53.174;6.730;2023-09-12T14:13:36;13.48;;;9.68;;
56541;SDS011;42438;53.174;6.730;2023-09-12T14:16:07;15.68;;;10.25;;
56541;SDS011;42438;53.174;6.730;2023-09-12T14:18:38;15.85;;;10.43;;
56541;SDS011;42438;53.174;6.730;2023-09-12T14:21:08;15.40;;;9.30;;
56541;SDS011;42438;53.174;6.730;2023-09-12T14:23:39;14.43;;;10.00;;
56541;SDS011;42438;53.174;6.730;2023-09-12T14:26:09;16.30;;;9.50;;
56541;SDS011;42438;53.174;6.730;2023-09-12T14:28:40;14.88;;;9.52;;
56541;SDS011;42438;53.174;6.730;2023-09-12T14:31:11;13.27;;;8.55;;
56541;SDS011;42438;53.174;6.730;2023-09-12T14:33:44;12.98;;;8.73;;
56541;SDS011;42438;53.174;6.730;2023-09-12T14:36:15;12.75;;;8.45;;
56541;SDS011;42438;53.174;6.730;2023-09-12T14:38:45;10.68;;;6.97;;
56541;SDS011;42438;53.174;6.730;2023-09-12T14:41:16;11.40;;;7.90;;
56541;SDS011;42438;53.174;6.730;2023-09-12T14:43:47;10.77;;;7.28;;
56541;SDS011;42438;53.174;6.730;2023-09-12T14:46:17;11.82;;;7.70;;
56541;SDS011;42438;53.174;6.730;2023-09-12T14:48:48;10.73;;;6.57;;
56541;SDS011;42438;53.174;6.730;2023-09-12T14:51:19;10.75;;;7.10;;
56541;SDS011;42438;53.174;6.730;2023-09-12T14:53:49;9.93;;;6.82;;
56541;SDS011;42438;53.174;6.730;2023-09-12T14:56:20;9.60;;;6.43;;
56541;SDS011;42438;53.174;6.730;2023-09-12T14:58:51;10.55;;;6.38;;
56541;SDS011;42438;53.174;6.730;2023-09-12T15:01:21;8.95;;;6.38;;
56541;SDS011;42438;53.174;6.730;2023-09-12T15:03:53;10.03;;;6.30;;
56541;SDS011;42438;53.174;6.730;2023-09-12T15:06:24;10.52;;;6.22;;